Time;durP1;ratioP1;P1;durP2;ratioP2;P2;SDS_P1;SDS_P2;PMS_P1;PMS_P2;Temp;Humidity;BMP_temperature;BMP_pressure;BME280_temperature;BME280_humidity;BME280_pressure;Samples;Min_cycle;Max_cycle;Signal;HPM_P1;HPM_P2
2023/06/27 00:00:53;;;;;;;12.23;2.72;;;14.40;99.90;;;;;;5067301;28;20151;-72
2023/06/27 00:03:18;;;;;;;11.40;2.75;;;14.30;99.90;;;;;;5069003;28;20209;-71
2023/06/27 00:05:51;;;;;;;8.55;2.85;;;14.30;99.90;;;;;;5064465;28;20044;-72
2023/06/27 00:08:19;;;;;;;8.25;3.13;;;14.30;99.90;;;;;;5063942;28;20040;-72
2023/06/27 00:10:44;;;;;;;11.02;3.35;;;14.30;99.90;;;;;;5065903;28;20048;-74
2023/06/27 00:13:15;;;;;;;8.82;3.00;;;14.30;99.90;;;;;;5063844;28;20035;-69
2023/06/27 00:15:44;;;;;;;15.82;3.58;;;14.30;99.90;;;;;;5081113;28;20641;-71
2023/06/27 00:18:10;;;;;;;7.70;3.03;;;14.20;99.90;;;;;;5060834;28;20044;-71
2023/06/27 00:20:36;;;;;;;11.30;3.45;;;14.20;99.90;;;;;;5084911;28;20042;-72
2023/06/27 00:23:33;;;;;;;10.48;2.88;;;14.20;99.90;;;;;;5078378;28;20032;-72
2023/06/27 00:26:00;;;;;;;12.93;3.10;;;14.20;99.90;;;;;;5064007;28;20044;-70
2023/06/27 00:28:26;;;;;;;14.75;3.60;;;14.20;99.90;;;;;;5048153;28;20037;-73
2023/06/27 00:30:52;;;;;;;7.75;3.22;;;14.10;99.90;;;;;;5065046;28;20414;-69
2023/06/27 00:33:18;;;;;;;17.10;3.90;;;14.10;99.90;;;;;;5052294;28;20048;-71
2023/06/27 00:35:44;;;;;;;7.82;2.90;;;14.10;99.90;;;;;;5063732;28;20044;-71
2023/06/27 00:38:15;;;;;;;9.98;3.45;;;14.10;99.90;;;;;;5047358;28;20032;-73
2023/06/27 00:40:40;;;;;;;8.10;3.38;;;14.10;99.90;;;;;;5083606;28;20036;-69
2023/06/27 00:43:06;;;;;;;10.25;3.53;;;14.00;99.90;;;;;;5084757;28;20039;-71
2023/06/27 00:45:32;;;;;;;7.45;3.05;;;14.00;99.90;;;;;;5084213;28;20043;-74
2023/06/27 00:48:00;;;;;;;11.45;4.20;;;14.00;99.90;;;;;;5068819;28;20711;-72
2023/06/27 00:50:30;;;;;;;15.30;3.58;;;14.00;99.90;;;;;;5062941;28;20095;-70
2023/06/27 00:52:59;;;;;;;9.70;3.40;;;13.90;99.90;;;;;;5065469;28;20044;-72
2023/06/27 00:55:25;;;;;;;10.48;2.97;;;13.90;99.90;;;;;;5066558;28;20052;-70
2023/06/27 00:57:53;;;;;;;11.10;3.33;;;13.90;99.90;;;;;;5067180;28;20047;-70
2023/06/27 01:00:20;;;;;;;8.05;3.38;;;13.90;99.90;;;;;;5054254;28;20109;-72
2023/06/27 01:02:45;;;;;;;12.52;4.03;;;13.90;99.90;;;;;;5046535;28;20103;-73
2023/06/27 01:05:18;;;;;;;8.95;3.50;;;13.90;99.90;;;;;;5063629;28;20193;-75
2023/06/27 01:08:13;;;;;;;12.68;3.75;;;13.90;99.90;;;;;;5063158;28;20047;-70
2023/06/27 01:10:49;;;;;;;12.15;3.53;;;13.90;99.90;;;;;;5046080;28;20505;-70
2023/06/27 01:13:29;;;;;;;9.32;3.67;;;13.90;99.90;;;;;;5047260;28;20037;-71
2023/06/27 01:15:57;;;;;;;8.80;3.70;;;13.90;99.90;;;;;;5063795;28;20056;-72
2023/06/27 01:18:27;;;;;;;12.00;3.88;;;13.90;99.90;;;;;;5047383;28;20048;-69
2023/06/27 01:20:53;;;;;;;11.00;4.05;;;13.90;99.90;;;;;;5062993;28;20040;-71
2023/06/27 01:23:31;;;;;;;10.95;3.60;;;13.90;99.90;;;;;;5045944;28;20036;-72
2023/06/27 01:26:07;;;;;;;8.55;3.42;;;13.90;99.90;;;;;;5063504;28;20070;-71
2023/06/27 01:28:33;;;;;;;9.82;3.47;;;13.90;99.90;;;;;;5063410;28;20571;-71
2023/06/27 01:31:03;;;;;;;9.02;3.83;;;13.80;99.90;;;;;;5064064;28;20495;-74
2023/06/27 01:33:47;;;;;;;12.27;3.83;;;13.80;99.90;;;;;;5045994;28;20048;-71
2023/06/27 01:36:18;;;;;;;;;;;13.80;99.90;;;;;;5064175;28;20052;-70
2023/06/27 01:39:15;;;;;;;11.52;3.85;;;13.70;99.90;;;;;;5067551;28;19951;-73
2023/06/27 01:41:45;;;;;;;10.02;3.75;;;13.70;99.90;;;;;;5056452;28;20559;-75
2023/06/27 01:44:13;;;;;;;8.90;4.00;;;13.70;99.90;;;;;;5084416;28;20118;-74
2023/06/27 01:46:40;;;;;;;8.90;3.55;;;13.70;99.90;;;;;;5060789;28;20045;-71
2023/06/27 01:49:05;;;;;;;8.00;3.47;;;13.70;99.90;;;;;;5083542;28;20139;-74
2023/06/27 01:51:32;;;;;;;13.02;5.07;;;13.70;99.90;;;;;;5083204;28;20035;-70
2023/06/27 01:53:58;;;;;;;10.18;3.95;;;13.70;99.90;;;;;;5059921;28;20075;-74
2023/06/27 01:56:24;;;;;;;8.38;3.67;;;13.70;99.90;;;;;;5083952;28;20467;-70
2023/06/27 01:58:50;;;;;;;9.68;3.65;;;13.70;99.90;;;;;;5065883;28;20041;-72
2023/06/27 02:01:19;;;;;;;12.25;3.75;;;13.70;99.90;;;;;;5047512;28;20098;-75
2023/06/27 02:03:45;;;;;;;9.48;3.30;;;13.70;99.90;;;;;;5067392;28;20145;-75
2023/06/27 02:06:11;;;;;;;8.13;3.70;;;13.70;99.90;;;;;;5083718;28;20032;-68
2023/06/27 02:08:37;;;;;;;8.38;3.95;;;13.70;99.90;;;;;;5060736;28;20538;-69
2023/06/27 02:11:12;;;;;;;10.32;4.25;;;13.70;99.90;;;;;;5067241;28;20043;-72
2023/06/27 02:13:42;;;;;;;10.07;4.50;;;13.70;99.90;;;;;;5066883;28;20535;-72
2023/06/27 02:16:16;;;;;;;10.75;3.83;;;13.70;99.90;;;;;;5067304;28;20083;-72
2023/06/27 02:18:48;;;;;;;10.50;3.97;;;13.70;99.90;;;;;;5066409;28;20044;-75
2023/06/27 02:21:13;;;;;;;7.35;3.55;;;13.80;99.90;;;;;;5050510;28;20039;-71
2023/06/27 02:23:39;;;;;;;10.10;4.85;;;13.70;99.90;;;;;;5049279;28;20041;-71
2023/06/27 02:26:06;;;;;;;12.45;4.28;;;13.80;99.90;;;;;;5067037;28;20073;-70
2023/06/27 02:28:32;;;;;;;12.52;4.25;;;13.80;99.90;;;;;;5050848;28;20045;-71
2023/06/27 02:30:57;;;;;;;9.45;4.25;;;13.70;99.90;;;;;;5066812;28;20530;-75
2023/06/27 02:33:30;;;;;;;9.88;4.28;;;13.70;99.90;;;;;;5069094;28;20071;-74
2023/06/27 02:35:56;;;;;;;9.48;4.65;;;13.70;99.90;;;;;;5049261;28;20051;-70
2023/06/27 02:38:21;;;;;;;11.07;4.35;;;13.70;99.90;;;;;;5069030;28;20040;-69
2023/06/27 02:40:47;;;;;;;8.00;3.85;;;13.70;99.90;;;;;;5069333;28;20189;-70
2023/06/27 02:43:16;;;;;;;11.43;4.28;;;13.60;99.90;;;;;;5069869;28;20040;-72
2023/06/27 02:45:42;;;;;;;13.30;4.20;;;13.60;99.90;;;;;;5069536;28;20050;-71
2023/06/27 02:48:08;;;;;;;9.07;4.25;;;13.60;99.90;;;;;;5064860;28;20040;-69
2023/06/27 02:50:33;;;;;;;10.40;4.55;;;13.60;99.90;;;;;;5065935;28;20052;-70
2023/06/27 02:53:02;;;;;;;8.70;4.28;;;13.60;99.90;;;;;;5066093;28;20044;-71
2023/06/27 02:55:30;;;;;;;9.20;4.20;;;13.60;99.90;;;;;;5049120;28;20052;-70
2023/06/27 02:57:59;;;;;;;9.35;4.28;;;13.60;99.90;;;;;;5065811;28;20044;-68
2023/06/27 03:00:27;;;;;;;7.95;3.72;;;13.60;99.90;;;;;;5065708;28;20681;-72
2023/06/27 03:02:53;;;;;;;9.25;4.45;;;13.60;99.90;;;;;;5075072;28;20119;-72
2023/06/27 03:05:25;;;;;;;8.40;4.45;;;13.60;99.90;;;;;;5086023;28;20185;-70
2023/06/27 03:07:50;;;;;;;10.48;4.18;;;13.60;99.90;;;;;;5072387;28;20488;-71
2023/06/27 03:10:16;;;;;;;10.65;4.05;;;13.70;99.90;;;;;;5048838;28;20087;-70
2023/06/27 03:12:42;;;;;;;8.55;3.83;;;13.60;99.90;;;;;;5049184;28;20044;-70
2023/06/27 03:15:11;;;;;;;10.35;4.10;;;13.60;99.90;;;;;;5084154;28;20082;-71
2023/06/27 03:17:36;;;;;;;11.73;4.30;;;13.60;99.90;;;;;;5077050;28;20040;-70
2023/06/27 03:20:03;;;;;;;11.00;4.25;;;13.60;99.90;;;;;;5064932;28;20051;-71
2023/06/27 03:22:29;;;;;;;10.98;4.70;;;13.50;99.90;;;;;;5049458;28;20493;-69
2023/06/27 03:24:54;;;;;;;8.52;4.50;;;13.50;99.90;;;;;;5065005;28;20044;-72
2023/06/27 03:27:26;;;;;;;10.23;4.05;;;13.50;99.90;;;;;;5066213;28;20041;-70
2023/06/27 03:29:53;;;;;;;9.23;4.30;;;13.50;99.90;;;;;;5048770;28;20106;-71
2023/06/27 03:32:18;;;;;;;11.20;4.38;;;13.40;99.90;;;;;;5049095;28;20477;-75
2023/06/27 03:34:47;;;;;;;11.15;4.65;;;13.40;99.90;;;;;;5082813;28;20047;-70
2023/06/27 03:37:13;;;;;;;11.43;4.90;;;13.40;99.90;;;;;;5082105;28;20036;-72
2023/06/27 03:39:39;;;;;;;9.13;4.35;;;13.40;99.90;;;;;;5094870;28;20077;-71
2023/06/27 03:42:05;;;;;;;10.68;3.80;;;13.40;99.90;;;;;;5064832;28;20032;-72
2023/06/27 03:44:34;;;;;;;13.95;5.15;;;13.40;99.90;;;;;;5053975;28;20044;-66
2023/06/27 03:47:00;;;;;;;10.00;4.18;;;13.40;99.90;;;;;;5055114;28;20115;-71
2023/06/27 03:49:25;;;;;;;10.85;4.18;;;13.40;99.90;;;;;;5049406;28;20154;-74
2023/06/27 03:51:59;;;;;;;14.77;4.47;;;13.40;99.90;;;;;;5049475;28;20110;-73
2023/06/27 03:54:25;;;;;;;8.52;4.30;;;13.40;99.90;;;;;;5047459;28;20101;-72
2023/06/27 03:56:51;;;;;;;10.52;4.70;;;13.50;99.90;;;;;;5065594;28;20279;-74
2023/06/27 03:59:16;;;;;;;9.63;4.40;;;13.60;99.90;;;;;;5064453;28;20044;-69
2023/06/27 04:01:42;;;;;;;14.07;4.70;;;13.80;99.90;;;;;;5064557;28;20132;-71
2023/06/27 04:04:11;;;;;;;8.52;3.83;;;14.00;99.90;;;;;;5085021;28;20048;-70
2023/06/27 04:06:36;;;;;;;10.40;4.18;;;14.20;99.90;;;;;;5068375;28;20051;-70
2023/06/27 04:09:03;;;;;;;12.90;4.10;;;14.40;99.90;;;;;;5072533;28;20052;-70
2023/06/27 04:11:29;;;;;;;10.90;4.18;;;14.60;99.90;;;;;;5065280;28;20064;-74
2023/06/27 04:13:56;;;;;;;10.90;4.20;;;14.80;99.90;;;;;;5066055;28;20631;-69
2023/06/27 04:16:22;;;;;;;9.55;4.13;;;14.90;99.90;;;;;;5065457;28;20048;-71
2023/06/27 04:18:51;;;;;;;9.32;3.83;;;15.10;99.90;;;;;;5065343;28;20051;-67
2023/06/27 04:21:18;;;;;;;10.95;4.50;;;15.20;99.90;;;;;;5084885;28;20040;-70
2023/06/27 04:23:44;;;;;;;10.50;4.13;;;15.40;99.90;;;;;;5058381;28;20476;-71
2023/06/27 04:26:15;;;;;;;10.55;4.28;;;15.50;99.90;;;;;;5065080;28;20048;-70
2023/06/27 04:28:43;;;;;;;10.05;4.00;;;15.60;99.90;;;;;;5047451;28;20048;-73
2023/06/27 04:31:10;;;;;;;10.18;4.35;;;15.80;99.90;;;;;;5064430;28;20040;-74
2023/06/27 04:33:42;;;;;;;9.43;3.90;;;15.90;99.90;;;;;;5063695;28;20127;-72
2023/06/27 04:36:08;;;;;;;12.82;3.50;;;16.10;99.90;;;;;;5048410;28;21007;-69
2023/06/27 04:38:39;;;;;;;8.68;3.83;;;16.30;99.90;;;;;;5063353;28;20468;-72
2023/06/27 04:41:09;;;;;;;9.38;3.78;;;16.40;99.90;;;;;;5048231;28;20043;-74
2023/06/27 04:43:36;;;;;;;7.90;3.40;;;16.50;99.90;;;;;;5064238;28;20048;-71
2023/06/27 04:46:02;;;;;;;11.52;4.50;;;16.70;99.90;;;;;;5047597;28;20084;-66
2023/06/27 04:48:28;;;;;;;7.72;3.63;;;16.70;99.90;;;;;;5063863;28;20088;-68
2023/06/27 04:50:56;;;;;;;10.18;3.80;;;16.80;99.90;;;;;;5047537;28;20559;-72
2023/06/27 04:53:25;;;;;;;9.30;3.63;;;16.90;99.90;;;;;;5047390;28;20110;-72
2023/06/27 04:55:53;;;;;;;6.88;3.55;;;17.00;99.90;;;;;;5063591;28;20048;-71
2023/06/27 04:58:28;;;;;;;9.25;3.60;;;17.20;99.90;;;;;;5077236;28;20036;-76
2023/06/27 05:00:54;;;;;;;9.13;3.35;;;17.50;99.90;;;;;;5068057;28;20036;-72
2023/06/27 05:03:22;;;;;;;11.68;3.47;;;17.70;99.90;;;;;;5069960;28;20667;-68
2023/06/27 05:05:51;;;;;;;10.40;3.13;;;17.90;99.90;;;;;;5064093;28;20071;-70
2023/06/27 05:08:17;;;;;;;12.32;3.10;;;18.10;99.90;;;;;;5063340;28;20052;-68
2023/06/27 05:10:43;;;;;;;9.15;3.05;;;18.00;99.90;;;;;;5064709;28;20818;-70
2023/06/27 05:13:09;;;;;;;9.82;3.28;;;18.00;99.90;;;;;;5063795;28;20059;-72
2023/06/27 05:15:34;;;;;;;9.95;3.38;;;18.20;99.90;;;;;;5063925;28;20037;-70
2023/06/27 05:18:08;;;;;;;9.68;4.35;;;18.40;99.90;;;;;;5064020;28;20032;-75
2023/06/27 05:20:34;;;;;;;8.40;3.10;;;18.50;99.90;;;;;;5063587;28;20734;-70
2023/06/27 05:23:01;;;;;;;11.95;3.25;;;19.20;99.90;;;;;;5063360;28;20036;-70
2023/06/27 05:25:28;;;;;;;13.95;3.30;;;19.70;99.90;;;;;;5063145;28;20044;-70
2023/06/27 05:27:54;;;;;;;11.77;3.45;;;19.60;99.90;;;;;;5063661;28;20089;-71
2023/06/27 05:30:23;;;;;;;9.82;2.97;;;19.50;99.90;;;;;;5080602;28;20051;-70
2023/06/27 05:32:49;;;;;;;8.90;2.67;;;19.50;99.90;;;;;;5056875;28;20032;-78
2023/06/27 05:35:15;;;;;;;12.68;3.25;;;19.50;99.90;;;;;;5063515;28;20745;-70
2023/06/27 05:37:44;;;;;;;10.80;3.20;;;19.50;99.90;;;;;;5047427;28;20036;-70
2023/06/27 05:40:11;;;;;;;9.30;2.97;;;19.70;99.90;;;;;;5063118;28;20047;-70
2023/06/27 05:42:40;;;;;;;8.45;3.13;;;19.60;99.90;;;;;;5076081;28;20275;-71
2023/06/27 05:45:06;;;;;;;7.88;2.80;;;19.60;99.90;;;;;;5046742;28;20041;-70
2023/06/27 05:47:32;;;;;;;8.32;2.38;;;19.50;99.90;;;;;;5080258;28;20047;-76
2023/06/27 05:49:59;;;;;;;11.43;3.25;;;19.50;99.90;;;;;;5064734;28;20067;-75
2023/06/27 05:52:24;;;;;;;8.85;2.50;;;19.40;99.90;;;;;;5062284;28;20444;-71
2023/06/27 05:54:50;;;;;;;9.95;2.40;;;19.40;99.90;;;;;;5078723;28;20036;-78
2023/06/27 05:57:16;;;;;;;8.10;2.35;;;19.30;99.90;;;;;;5100633;28;20407;-72
2023/06/27 05:59:42;;;;;;;8.27;2.55;;;19.30;99.90;;;;;;5073695;28;20041;-69
2023/06/27 06:02:07;;;;;;;11.88;2.40;;;19.30;99.90;;;;;;5062801;28;20052;-76
2023/06/27 06:04:33;;;;;;;11.30;2.53;;;19.30;99.90;;;;;;5065944;28;20056;-71
2023/06/27 06:07:03;;;;;;;10.93;2.30;;;19.30;99.90;;;;;;5062522;28;20068;-71
2023/06/27 06:09:30;;;;;;;7.78;2.35;;;19.40;99.90;;;;;;5045450;28;20415;-71
2023/06/27 06:11:58;;;;;;;10.20;2.75;;;19.50;99.90;;;;;;5063814;28;20051;-73
2023/06/27 06:14:24;;;;;;;10.15;2.17;;;19.50;99.90;;;;;;5063848;28;20055;-70
2023/06/27 06:16:50;;;;;;;9.73;2.17;;;19.60;99.90;;;;;;5075722;28;20036;-70
2023/06/27 06:19:16;;;;;;;9.30;2.00;;;19.60;99.90;;;;;;5065543;28;20028;-76
2023/06/27 06:21:42;;;;;;;9.75;2.17;;;19.60;99.90;;;;;;5080135;28;20093;-70
2023/06/27 06:24:08;;;;;;;6.72;1.83;;;19.60;99.90;;;;;;5062093;28;20036;-73
2023/06/27 06:26:35;;;;;;;10.13;2.00;;;19.60;99.90;;;;;;5063304;28;20098;-75
2023/06/27 06:29:02;;;;;;;9.95;1.90;;;19.60;99.90;;;;;;5046495;28;20048;-73
2023/06/27 06:31:27;;;;;;;10.35;1.77;;;19.60;99.90;;;;;;5082208;28;20514;-70
2023/06/27 06:33:57;;;;;;;9.15;2.00;;;19.60;99.90;;;;;;5080324;28;20115;-73
2023/06/27 06:36:23;;;;;;;10.98;1.90;;;19.60;99.70;;;;;;5082343;28;20036;-69
2023/06/27 06:38:49;;;;;;;10.25;2.08;;;19.60;99.40;;;;;;5078922;28;20036;-71
2023/06/27 06:41:15;;;;;;;8.77;1.70;;;19.60;99.30;;;;;;5083220;28;20047;-73
2023/06/27 06:43:40;;;;;;;6.18;1.42;;;19.60;99.00;;;;;;5082927;28;20035;-66
2023/06/27 06:46:06;;;;;;;15.18;1.83;;;19.60;98.80;;;;;;5100633;28;20051;-69
2023/06/27 06:48:31;;;;;;;7.55;1.58;;;19.70;98.50;;;;;;5068341;28;20041;-71
2023/06/27 06:50:57;;;;;;;10.55;1.70;;;19.80;98.50;;;;;;5072932;28;20098;-69
2023/06/27 06:53:23;;;;;;;6.75;1.58;;;20.00;98.40;;;;;;5082015;28;20175;-69
2023/06/27 06:55:49;;;;;;;8.70;1.48;;;20.00;98.30;;;;;;5065945;28;20763;-68
2023/06/27 06:58:16;;;;;;;9.05;1.40;;;20.00;97.70;;;;;;5067449;28;20044;-71
2023/06/27 07:00:42;;;;;;;9.98;1.55;;;20.10;97.60;;;;;;5066594;28;20040;-66
2023/06/27 07:03:09;;;;;;;8.07;1.30;;;20.20;97.60;;;;;;5065432;28;20056;-71
2023/06/27 07:05:36;;;;;;;6.78;1.23;;;20.20;97.30;;;;;;5049574;28;20059;-74
2023/06/27 07:08:04;;;;;;;8.85;1.40;;;20.20;97.00;;;;;;5065421;28;20048;-73
2023/06/27 07:10:30;;;;;;;10.70;2.10;;;20.30;97.00;;;;;;5049487;28;20044;-71
2023/06/27 07:12:55;;;;;;;6.95;2.03;;;20.30;97.10;;;;;;5066407;28;20080;-69
2023/06/27 07:15:23;;;;;;;10.65;1.80;;;20.40;97.20;;;;;;5067395;28;20083;-66
2023/06/27 07:17:53;;;;;;;6.93;1.45;;;20.50;96.90;;;;;;5058346;28;20072;-75
2023/06/27 07:20:20;;;;;;;6.25;1.40;;;20.50;96.70;;;;;;5068715;28;20044;-72
2023/06/27 07:22:46;;;;;;;6.55;1.38;;;20.60;96.60;;;;;;5068975;28;20032;-68
2023/06/27 07:25:12;;;;;;;8.65;1.73;;;20.60;96.40;;;;;;5077960;28;20052;-69
2023/06/27 07:27:43;;;;;;;4.05;1.20;;;20.60;96.40;;;;;;5084809;28;20055;-69
2023/06/27 07:30:08;;;;;;;9.90;1.50;;;20.50;95.80;;;;;;5082074;28;20044;-69
2023/06/27 07:32:34;;;;;;;8.70;1.65;;;20.40;96.00;;;;;;5077486;28;20044;-67
2023/06/27 07:35:00;;;;;;;6.28;1.60;;;20.30;96.20;;;;;;5048251;28;20032;-71
2023/06/27 07:37:26;;;;;;;6.18;1.35;;;20.20;96.10;;;;;;5048873;28;20521;-69
2023/06/27 07:39:52;;;;;;;6.88;1.70;;;20.20;96.10;;;;;;5080511;28;20072;-69
2023/06/27 07:42:17;;;;;;;7.63;1.58;;;20.10;95.70;;;;;;5079958;28;20423;-70
2023/06/27 07:44:44;;;;;;;8.55;1.40;;;20.00;95.60;;;;;;5082491;28;20377;-73
2023/06/27 07:47:10;;;;;;;8.57;1.52;;;20.00;95.80;;;;;;5064819;28;20044;-72
2023/06/27 07:49:37;;;;;;;9.48;1.30;;;19.90;95.80;;;;;;5065077;28;20044;-67
2023/06/27 07:52:06;;;;;;;9.65;1.75;;;20.00;95.90;;;;;;5064340;28;20052;-72
2023/06/27 07:54:31;;;;;;;6.15;1.35;;;19.90;95.90;;;;;;5077450;28;20093;-71
2023/06/27 07:56:57;;;;;;;8.50;1.35;;;20.00;96.00;;;;;;5084429;28;20048;-73
2023/06/27 07:59:26;;;;;;;7.68;1.70;;;20.00;96.00;;;;;;5066871;28;20036;-74
2023/06/27 08:01:53;;;;;;;8.40;1.30;;;20.10;95.90;;;;;;5083114;28;20052;-70
2023/06/27 08:04:19;;;;;;;9.80;1.60;;;20.00;95.90;;;;;;5064836;28;20072;-74
2023/06/27 08:06:45;;;;;;;8.20;1.25;;;20.10;96.10;;;;;;5064331;28;20036;-70
2023/06/27 08:09:10;;;;;;;5.15;1.42;;;20.10;96.10;;;;;;5063558;28;20047;-69
2023/06/27 08:11:36;;;;;;;10.05;1.38;;;20.20;96.00;;;;;;5064980;28;20354;-68
2023/06/27 08:14:01;;;;;;;8.05;1.40;;;20.30;95.40;;;;;;5066743;28;20089;-74
2023/06/27 08:16:30;;;;;;;9.00;1.77;;;20.50;95.40;;;;;;5083500;28;20055;-69
2023/06/27 08:18:56;;;;;;;6.25;1.33;;;20.50;95.30;;;;;;5066532;28;20040;-68
2023/06/27 08:21:22;;;;;;;6.32;1.23;;;20.60;95.40;;;;;;5064218;28;20025;-71
2023/06/27 08:23:47;;;;;;;6.60;1.20;;;20.60;95.50;;;;;;5063818;28;20109;-71
2023/06/27 08:26:18;;;;;;;8.18;1.48;;;20.70;95.30;;;;;;5065000;28;20037;-73
2023/06/27 08:28:44;;;;;;;6.25;1.55;;;20.80;95.10;;;;;;5064946;28;20048;-72
2023/06/27 08:31:13;;;;;;;9.20;1.70;;;20.90;94.70;;;;;;5057987;28;20106;-69
2023/06/27 08:33:39;;;;;;;9.15;1.70;;;21.10;94.80;;;;;;5081492;28;20112;-73
2023/06/27 08:36:06;;;;;;;8.00;1.50;;;21.20;94.70;;;;;;5084448;28;20043;-74
2023/06/27 08:38:32;;;;;;;6.68;1.30;;;21.30;94.20;;;;;;5077496;28;20608;-69
2023/06/27 08:41:00;;;;;;;7.68;1.40;;;21.40;93.90;;;;;;5064556;28;20083;-68
2023/06/27 08:43:26;;;;;;;4.88;1.13;;;21.40;94.00;;;;;;5064386;28;20051;-64
2023/06/27 08:45:54;;;;;;;6.72;1.35;;;21.20;93.90;;;;;;5064537;28;20044;-69
2023/06/27 08:48:20;;;;;;;6.63;1.40;;;21.10;93.80;;;;;;5063087;28;20106;-69
2023/06/27 08:50:48;;;;;;;8.55;1.42;;;21.10;94.10;;;;;;5047432;28;20139;-70
2023/06/27 08:53:17;;;;;;;7.57;1.70;;;21.00;94.10;;;;;;5072070;28;20079;-69
2023/06/27 08:56:06;;;;;;;6.47;1.60;;;20.90;94.00;;;;;;5056891;28;20580;-71
2023/06/27 08:58:50;;;;;;;8.10;1.48;;;20.60;93.90;;;;;;5064632;28;20052;-69
2023/06/27 09:01:20;;;;;;;5.00;1.23;;;20.60;94.40;;;;;;5056017;28;20118;-69
2023/06/27 09:03:46;;;;;;;8.88;1.90;;;20.70;94.80;;;;;;5077709;28;20099;-65
2023/06/27 09:06:14;;;;;;;7.50;1.77;;;20.70;94.60;;;;;;5062443;28;20534;-66
2023/06/27 09:08:41;;;;;;;7.95;1.40;;;20.70;94.50;;;;;;5078174;28;20096;-70
2023/06/27 09:11:09;;;;;;;7.47;1.17;;;20.70;94.40;;;;;;5059884;28;20086;-66
2023/06/27 09:13:37;;;;;;;6.30;1.50;;;20.50;94.10;;;;;;5076430;28;20040;-72
2023/06/27 09:16:06;;;;;;;5.18;1.20;;;20.50;94.40;;;;;;5057654;28;20123;-68
2023/06/27 09:18:36;;;;;;;9.68;1.50;;;20.50;94.40;;;;;;5059912;28;20689;-71
2023/06/27 09:21:02;;;;;;;10.93;1.42;;;20.60;94.20;;;;;;5074587;28;20460;-69
2023/06/27 09:23:32;;;;;;;7.85;1.30;;;20.70;94.10;;;;;;5059100;28;20143;-73
2023/06/27 09:26:12;;;;;;;8.30;1.67;;;20.80;94.10;;;;;;5076885;28;20059;-71
2023/06/27 09:28:49;;;;;;;8.85;1.30;;;20.90;93.60;;;;;;5056192;28;20109;-69
2023/06/27 09:31:17;;;;;;;8.15;1.42;;;20.90;93.90;;;;;;5077987;28;20065;-69
2023/06/27 09:33:44;;;;;;;8.50;1.48;;;20.80;93.90;;;;;;5075912;28;20044;-67
2023/06/27 09:36:11;;;;;;;5.80;1.15;;;20.80;94.10;;;;;;5057230;28;20713;-71
2023/06/27 09:38:37;;;;;;;7.57;1.38;;;20.80;93.90;;;;;;5055989;28;20666;-73
2023/06/27 09:41:03;;;;;;;10.90;1.38;;;20.80;93.50;;;;;;5076478;28;20047;-70
2023/06/27 09:43:35;;;;;;;6.90;1.20;;;20.80;93.40;;;;;;5080640;28;20123;-71
2023/06/27 09:46:04;;;;;;;7.82;1.35;;;20.80;93.60;;;;;;5075279;28;20459;-65
2023/06/27 09:48:30;;;;;;;8.93;1.38;;;20.80;93.80;;;;;;5058931;28;20489;-72
2023/06/27 09:51:03;;;;;;;7.95;1.52;;;20.80;94.00;;;;;;5074736;28;20181;-69
2023/06/27 09:53:30;;;;;;;7.18;1.63;;;20.90;94.10;;;;;;5059138;28;20048;-69
2023/06/27 09:56:00;;;;;;;11.18;1.48;;;21.10;93.90;;;;;;5061729;28;20092;-71
2023/06/27 09:58:31;;;;;;;6.68;1.25;;;21.20;93.30;;;;;;5060684;28;20508;-68
2023/06/27 10:01:06;;;;;;;8.27;1.20;;;21.20;92.80;;;;;;5059393;28;20040;-66
2023/06/27 10:03:33;;;;;;;7.30;1.58;;;21.20;93.10;;;;;;5060673;28;20043;-72
2023/06/27 10:05:59;;;;;;;6.68;1.83;;;21.10;93.40;;;;;;5077121;28;20495;-69
2023/06/27 10:08:27;;;;;;;10.55;1.30;;;21.10;93.20;;;;;;5076983;28;20610;-65
2023/06/27 10:10:57;;;;;;;7.80;1.35;;;21.10;93.10;;;;;;5072559;28;20044;-74
2023/06/27 10:13:24;;;;;;;6.13;1.08;;;21.20;92.90;;;;;;5057941;28;20052;-69
2023/06/27 10:15:49;;;;;;;7.32;1.38;;;21.30;92.80;;;;;;5058763;28;20036;-71
2023/06/27 10:18:15;;;;;;;5.60;1.25;;;21.30;92.50;;;;;;5075238;28;20071;-70
2023/06/27 10:20:44;;;;;;;3.63;0.98;;;21.30;92.50;;;;;;5076370;28;20085;-72
2023/06/27 10:23:14;;;;;;;7.45;1.55;;;21.30;92.60;;;;;;5079114;28;20499;-72
2023/06/27 10:25:40;;;;;;;5.65;1.35;;;21.30;92.60;;;;;;5080544;28;20062;-72
2023/06/27 10:28:14;;;;;;;5.13;1.10;;;21.30;92.90;;;;;;5078451;28;20036;-76
2023/06/27 10:30:43;;;;;;;;;;;21.30;92.70;;;;;;5065883;28;20059;-69
2023/06/27 10:33:18;;;;;;;8.30;1.50;;;21.30;92.40;;;;;;5079777;28;19931;-71
2023/06/27 10:36:01;;;;;;;5.20;1.13;;;21.30;92.80;;;;;;5061970;28;20137;-75
2023/06/27 10:38:51;;;;;;;8.20;1.20;;;21.30;92.90;;;;;;5076043;28;20173;-71
2023/06/27 10:41:24;;;;;;;10.18;2.10;;;21.30;93.20;;;;;;5064797;28;20036;-70
2023/06/27 10:43:53;;;;;;;5.82;1.40;;;21.30;93.50;;;;;;5081615;28;20028;-73
2023/06/27 10:46:26;;;;;;;5.90;1.48;;;21.20;92.90;;;;;;5082355;28;20127;-70
2023/06/27 10:49:00;;;;;;;6.78;1.17;;;21.30;92.50;;;;;;5081740;28;20047;-67
2023/06/27 10:51:43;;;;;;;;;;;21.40;92.40;;;;;;5080271;28;20402;-69
2023/06/27 10:54:09;;;;;;;9.38;1.42;;;21.50;91.70;;;;;;5075711;28;19985;-71
2023/06/27 10:56:37;;;;;;;13.27;2.20;;;21.50;92.10;;;;;;5080618;28;20040;-66
2023/06/27 10:59:08;;;;;;;7.53;1.70;;;21.50;91.80;;;;;;5078495;28;20487;-69
2023/06/27 11:01:34;;;;;;;7.60;1.17;;;21.40;91.40;;;;;;5060348;28;20574;-70
2023/06/27 11:04:19;;;;;;;6.78;1.17;;;21.50;91.30;;;;;;5058771;28;20580;-64
2023/06/27 11:06:46;;;;;;;5.72;1.13;;;21.60;91.00;;;;;;5078685;28;20036;-70
2023/06/27 11:09:19;;;;;;;7.78;1.60;;;21.60;91.20;;;;;;5077824;28;20243;-72
2023/06/27 11:12:11;;;;;;;7.10;1.23;;;21.70;91.10;;;;;;5063940;28;20040;-72
2023/06/27 11:14:48;;;;;;;6.55;1.50;;;21.80;91.20;;;;;;5079403;28;20047;-66
2023/06/27 11:17:17;;;;;;;7.40;1.10;;;21.80;90.30;;;;;;5082121;28;20062;-68
2023/06/27 11:19:43;;;;;;;7.32;1.30;;;21.80;90.00;;;;;;5077773;28;20812;-68
2023/06/27 11:22:10;;;;;;;5.82;1.10;;;21.80;88.40;;;;;;5058751;28;20040;-69
2023/06/27 11:24:36;;;;;;;6.70;1.08;;;21.70;89.20;;;;;;5078252;28;20039;-67
2023/06/27 11:27:06;;;;;;;5.65;1.30;;;21.70;90.20;;;;;;5077476;28;20048;-68
2023/06/27 11:29:33;;;;;;;7.90;1.33;;;21.70;90.50;;;;;;5078674;28;20519;-64
2023/06/27 11:31:59;;;;;;;7.25;1.30;;;21.70;90.80;;;;;;5073921;28;20477;-68
2023/06/27 11:34:25;;;;;;;7.30;1.45;;;21.70;90.80;;;;;;5060395;28;20467;-71
2023/06/27 11:36:51;;;;;;;7.78;1.67;;;21.70;90.60;;;;;;5078071;28;20063;-69
2023/06/27 11:39:16;;;;;;;7.72;1.50;;;21.70;90.50;;;;;;5075645;28;20040;-69
2023/06/27 11:41:45;;;;;;;8.95;1.30;;;21.70;90.30;;;;;;5075349;28;20460;-70
2023/06/27 11:44:12;;;;;;;7.18;1.20;;;21.60;90.60;;;;;;5075920;28;20781;-71
2023/06/27 11:46:57;;;;;;;7.35;1.27;;;21.60;90.60;;;;;;5076985;28;20462;-71
2023/06/27 11:49:24;;;;;;;7.78;1.30;;;21.60;91.00;;;;;;5076198;28;20036;-70
2023/06/27 11:51:51;;;;;;;9.27;1.38;;;21.60;90.60;;;;;;5076557;28;20499;-69
2023/06/27 11:54:18;;;;;;;10.00;1.20;;;21.60;90.40;;;;;;5076504;28;20553;-70
2023/06/27 11:56:44;;;;;;;7.50;1.40;;;21.50;90.30;;;;;;5078058;28;20040;-71
2023/06/27 11:59:10;;;;;;;8.95;1.60;;;21.40;90.40;;;;;;5078841;28;20248;-70
2023/06/27 12:01:40;;;;;;;7.47;1.45;;;21.40;90.70;;;;;;5061013;28;20113;-72
2023/06/27 12:04:12;;;;;;;6.97;1.30;;;21.30;90.40;;;;;;5080080;28;20101;-74
2023/06/27 12:06:38;;;;;;;5.88;1.20;;;21.30;90.40;;;;;;5076717;28;20043;-65
2023/06/27 12:09:07;;;;;;;10.30;1.60;;;21.20;90.80;;;;;;5060750;28;20689;-69
2023/06/27 12:11:37;;;;;;;6.88;1.17;;;21.20;91.30;;;;;;5059289;28;20083;-67
2023/06/27 12:14:04;;;;;;;6.70;1.25;;;21.20;91.20;;;;;;5062218;28;20074;-65
2023/06/27 12:16:35;;;;;;;6.18;1.05;;;21.10;91.00;;;;;;5079645;28;20024;-68
2023/06/27 12:19:03;;;;;;;8.27;1.58;;;21.10;91.00;;;;;;5062433;28;20054;-69
2023/06/27 12:21:29;;;;;;;6.03;1.45;;;21.20;91.40;;;;;;5076983;28;20342;-67
2023/06/27 12:23:55;;;;;;;6.65;1.27;;;21.20;91.30;;;;;;5075326;28;20046;-68
2023/06/27 12:26:21;;;;;;;6.70;1.50;;;21.10;91.30;;;;;;5082101;28;20514;-73
2023/06/27 12:28:58;;;;;;;8.38;1.50;;;21.10;91.60;;;;;;5061957;28;20420;-64
2023/06/27 12:31:24;;;;;;;7.72;1.23;;;21.20;92.30;;;;;;5058034;28;20126;-72
2023/06/27 12:33:51;;;;;;;5.85;1.38;;;21.20;92.70;;;;;;5062327;28;20047;-73
2023/06/27 12:36:24;;;;;;;6.05;1.30;;;21.20;92.40;;;;;;5079065;28;20343;-69
2023/06/27 12:38:50;;;;;;;8.27;1.33;;;21.30;92.30;;;;;;5077198;28;20153;-73
2023/06/27 12:41:24;;;;;;;7.57;1.42;;;21.20;92.50;;;;;;5059527;28;20483;-68
2023/06/27 12:43:49;;;;;;;11.15;1.48;;;21.20;92.20;;;;;;5076946;28;20047;-64
2023/06/27 12:46:15;;;;;;;7.50;1.38;;;21.10;92.00;;;;;;5061701;28;20288;-65
2023/06/27 12:48:42;;;;;;;6.65;1.30;;;21.00;91.60;;;;;;5077966;28;20044;-68
2023/06/27 12:51:08;;;;;;;7.72;1.60;;;21.00;91.60;;;;;;5076668;28;20052;-71